createdAt,value
2018-12-19T00:01:20.529Z,2.80
2018-12-19T00:04:04.268Z,2.80
2018-12-19T00:06:47.599Z,2.80
2018-12-19T00:09:29.843Z,2.80
2018-12-19T00:12:11.600Z,2.80
2018-12-19T00:14:53.338Z,2.80
2018-12-19T00:17:36.505Z,2.80
2018-12-19T00:20:18.441Z,2.80
2018-12-19T00:22:59.736Z,2.80
2018-12-19T00:25:41.048Z,2.80
2018-12-19T00:28:25.405Z,2.80
2018-12-19T00:31:08.457Z,2.80
2018-12-19T00:33:52.733Z,2.80
2018-12-19T00:36:34.972Z,2.80
2018-12-19T00:39:16.322Z,2.80
2018-12-19T00:41:57.482Z,2.90
2018-12-19T00:44:39.292Z,2.80
2018-12-19T00:47:20.431Z,2.70
2018-12-19T00:50:02.582Z,2.70
2018-12-19T00:52:43.960Z,2.70
2018-12-19T00:55:25.139Z,2.70
2018-12-19T00:58:06.793Z,2.70
2018-12-19T01:00:48.624Z,2.70
2018-12-19T01:03:30.513Z,2.70
2018-12-19T01:06:13.701Z,2.70
2018-12-19T01:08:55.477Z,2.80
2018-12-19T01:11:37.468Z,2.80
2018-12-19T01:14:19.066Z,2.80
2018-12-19T01:17:00.845Z,2.80
2018-12-19T01:19:43.406Z,2.80
2018-12-19T01:22:24.985Z,2.80
2018-12-19T01:25:06.708Z,2.80
2018-12-19T01:27:49.482Z,2.80
2018-12-19T01:30:31.641Z,2.70
2018-12-19T01:33:12.819Z,2.70
2018-12-19T01:35:55.056Z,2.70
2018-12-19T01:38:36.328Z,2.70
2018-12-19T01:41:18.019Z,2.70
2018-12-19T01:43:59.382Z,2.70
2018-12-19T01:46:41.075Z,2.60
2018-12-19T01:49:22.451Z,2.60
2018-12-19T01:52:03.792Z,2.60
2018-12-19T01:54:45.188Z,2.60
2018-12-19T01:57:26.809Z,2.60
2018-12-19T02:00:10.239Z,2.60
2018-12-19T02:02:52.055Z,2.60
2018-12-19T02:05:33.483Z,2.50
2018-12-19T02:08:14.614Z,2.50
2018-12-19T02:10:55.895Z,2.50
2018-12-19T02:13:39.618Z,2.50
2018-12-19T02:16:21.306Z,2.60
2018-12-19T02:19:02.916Z,2.60
2018-12-19T02:21:44.996Z,2.60
2018-12-19T02:24:26.693Z,2.70
2018-12-19T02:27:07.970Z,2.70
2018-12-19T02:29:50.036Z,2.70
2018-12-19T02:32:31.755Z,2.70
2018-12-19T02:35:13.149Z,2.60
2018-12-19T02:37:54.335Z,2.60
2018-12-19T02:40:36.617Z,2.60
2018-12-19T02:43:18.179Z,2.70
2018-12-19T02:45:59.712Z,2.70
2018-12-19T02:48:41.075Z,2.60
2018-12-19T02:51:22.270Z,2.60
2018-12-19T02:54:04.576Z,2.60
2018-12-19T02:56:47.978Z,2.70
2018-12-19T02:59:30.113Z,2.70
2018-12-19T03:02:11.839Z,2.60
2018-12-19T03:04:53.593Z,2.70
2018-12-19T03:07:34.878Z,2.60
2018-12-19T03:10:16.843Z,2.60
2018-12-19T03:12:58.073Z,2.60
2018-12-19T03:15:39.609Z,2.60
2018-12-19T03:18:21.300Z,2.60
2018-12-19T03:21:02.664Z,2.60
2018-12-19T03:23:44.278Z,2.60
2018-12-19T03:26:25.419Z,2.70
2018-12-19T03:29:07.518Z,2.70
2018-12-19T03:31:49.880Z,2.70
2018-12-19T03:34:31.689Z,2.70
2018-12-19T03:37:13.450Z,2.70
2018-12-19T03:39:55.655Z,2.60
2018-12-19T03:42:36.965Z,2.60
2018-12-19T03:45:18.583Z,2.60
2018-12-19T03:47:59.983Z,2.60
2018-12-19T03:50:41.272Z,2.60
2018-12-19T03:53:22.488Z,2.60
2018-12-19T03:56:04.823Z,2.60
2018-12-19T03:58:47.085Z,2.60
2018-12-19T04:01:28.342Z,2.50
2018-12-19T04:04:10.641Z,2.50
2018-12-19T04:06:52.532Z,2.50
2018-12-19T04:09:34.942Z,2.60
2018-12-19T04:12:17.508Z,2.60
2018-12-19T04:14:58.926Z,2.70
2018-12-19T04:17:42.586Z,2.70
2018-12-19T04:20:24.780Z,2.70
2018-12-19T04:23:06.723Z,2.70
2018-12-19T04:25:47.977Z,2.70
2018-12-19T04:28:29.200Z,2.70
2018-12-19T04:31:11.407Z,2.70
2018-12-19T04:33:53.581Z,2.70
2018-12-19T04:36:35.588Z,2.70
2018-12-19T04:39:17.336Z,2.70
2018-12-19T04:41:59.133Z,2.70
2018-12-19T04:44:41.273Z,2.70
2018-12-19T04:47:22.923Z,2.70
2018-12-19T04:50:05.109Z,2.70
2018-12-19T04:52:47.016Z,2.70
2018-12-19T04:55:30.911Z,2.80
2018-12-19T04:58:12.645Z,2.80
2018-12-19T05:00:54.532Z,2.80
2018-12-19T05:03:36.224Z,2.90
2018-12-19T05:06:17.411Z,2.90
2018-12-19T05:08:58.588Z,2.80
2018-12-19T05:11:40.603Z,2.80
2018-12-19T05:14:22.970Z,2.80
2018-12-19T05:17:04.484Z,2.80
2018-12-19T05:19:47.076Z,2.80
2018-12-19T05:22:28.781Z,2.90
2018-12-19T05:25:13.584Z,2.90
2018-12-19T05:27:55.432Z,2.90
2018-12-19T05:30:37.376Z,2.90
2018-12-19T05:33:19.328Z,2.90
2018-12-19T05:36:01.241Z,2.90
2018-12-19T05:38:42.662Z,2.80
2018-12-19T05:41:24.266Z,2.90
2018-12-19T05:44:06.924Z,2.90
2018-12-19T05:46:49.007Z,2.90
2018-12-19T05:49:31.625Z,2.90
2018-12-19T05:52:13.339Z,2.90
2018-12-19T05:54:55.091Z,2.90
2018-12-19T05:57:37.282Z,2.90
2018-12-19T06:00:21.927Z,2.90
2018-12-19T06:03:06.476Z,2.90
2018-12-19T06:05:49.879Z,2.90
2018-12-19T06:08:31.574Z,2.90
2018-12-19T06:11:14.068Z,2.90
2018-12-19T06:13:55.393Z,2.90
2018-12-19T06:16:37.239Z,2.90
2018-12-19T06:19:19.499Z,2.80
2018-12-19T06:22:01.356Z,2.90
2018-12-19T06:24:42.909Z,2.80
2018-12-19T06:27:24.613Z,2.90
2018-12-19T06:30:07.479Z,2.90
2018-12-19T06:32:49.775Z,2.80
2018-12-19T06:35:31.957Z,2.90
2018-12-19T06:38:14.256Z,2.80
2018-12-19T06:40:55.921Z,2.80
2018-12-19T06:43:37.474Z,2.80
2018-12-19T06:46:19.503Z,2.80
2018-12-19T06:49:00.891Z,2.80
2018-12-19T06:51:42.231Z,2.80
2018-12-19T06:54:23.510Z,2.80
2018-12-19T06:57:05.475Z,2.80
2018-12-19T06:59:47.367Z,2.80
2018-12-19T07:02:28.559Z,2.80
2018-12-19T07:05:10.439Z,2.80
2018-12-19T07:07:51.762Z,2.80
2018-12-19T07:10:38.947Z,2.80
2018-12-19T07:13:18.458Z,2.80
2018-12-19T07:15:59.737Z,2.90
2018-12-19T07:18:41.429Z,2.80
2018-12-19T07:21:22.594Z,2.80
2018-12-19T07:24:05.351Z,2.80
2018-12-19T07:26:46.762Z,2.80
2018-12-19T07:29:28.074Z,2.90
2018-12-19T07:32:09.864Z,2.80
2018-12-19T07:34:51.220Z,2.80
2018-12-19T07:37:34.170Z,2.90
2018-12-19T07:40:15.421Z,2.90
2018-12-19T07:42:56.735Z,2.90
2018-12-19T07:45:37.913Z,3.00
2018-12-19T07:48:19.977Z,3.00
2018-12-19T07:51:01.765Z,3.10
2018-12-19T07:53:43.576Z,3.00
2018-12-19T07:56:25.536Z,3.10
2018-12-19T07:59:07.552Z,3.10
2018-12-19T08:01:49.187Z,3.10
2018-12-19T08:04:32.797Z,3.10
2018-12-19T08:07:14.082Z,3.20
2018-12-19T08:10:02.048Z,3.20
2018-12-19T08:12:43.991Z,3.20
2018-12-19T08:15:26.184Z,3.30
2018-12-19T08:18:07.714Z,3.30
2018-12-19T08:20:49.363Z,3.30
2018-12-19T08:23:31.299Z,3.40
2018-12-19T08:26:12.887Z,3.30
2018-12-19T08:28:54.578Z,3.40
2018-12-19T08:31:36.313Z,3.40
2018-12-19T08:34:18.032Z,3.30
2018-12-19T08:37:00.163Z,3.40
2018-12-19T08:39:42.594Z,3.40
2018-12-19T08:42:25.283Z,3.30
2018-12-19T08:45:08.781Z,3.40
2018-12-19T08:47:50.780Z,3.40
2018-12-19T08:50:33.698Z,3.40
2018-12-19T08:53:15.323Z,3.40
2018-12-19T08:55:56.693Z,3.50
2018-12-19T08:58:38.883Z,3.50
2018-12-19T09:01:47.418Z,3.50
2018-12-19T09:04:33.760Z,3.60
2018-12-19T09:07:22.238Z,3.60
2018-12-19T09:10:15.348Z,3.80
2018-12-19T09:12:57.527Z,3.80
2018-12-19T09:15:44.338Z,3.80
2018-12-19T09:18:26.116Z,3.80
2018-12-19T09:21:07.320Z,3.70
2018-12-19T09:23:49.674Z,3.70
2018-12-19T09:26:33.283Z,3.70
2018-12-19T09:29:14.755Z,3.80
2018-12-19T09:31:57.759Z,3.80
2018-12-19T09:34:40.199Z,3.80
2018-12-19T09:37:22.500Z,3.80
2018-12-19T09:40:05.280Z,3.80
2018-12-19T09:42:47.978Z,3.80
2018-12-19T09:45:30.017Z,3.80
2018-12-19T09:48:11.944Z,3.80
2018-12-19T09:50:53.776Z,3.80
2018-12-19T09:53:36.209Z,3.80
2018-12-19T09:56:17.726Z,3.90
2018-12-19T09:58:59.142Z,3.80
2018-12-19T10:01:41.456Z,3.90
2018-12-19T10:04:23.361Z,3.80
2018-12-19T10:07:05.249Z,3.80
2018-12-19T10:09:46.840Z,3.90
2018-12-19T10:12:27.975Z,4.00
2018-12-19T10:15:11.052Z,4.20
2018-12-19T10:17:52.859Z,4.30
2018-12-19T10:20:34.603Z,4.30
2018-12-19T10:23:16.735Z,4.40
2018-12-19T10:26:04.254Z,4.30
2018-12-19T10:28:46.567Z,4.40
2018-12-19T10:31:29.239Z,4.40
2018-12-19T10:34:10.464Z,4.30
2018-12-19T10:36:52.259Z,4.20
2018-12-19T10:39:34.367Z,4.10
2018-12-19T10:42:16.515Z,4.10
2018-12-19T10:44:59.651Z,4.10
2018-12-19T10:47:42.085Z,4.10
2018-12-19T10:50:24.113Z,4.20
2018-12-19T10:53:06.596Z,4.20
2018-12-19T10:55:49.213Z,4.20
2018-12-19T10:58:31.464Z,4.20
2018-12-19T11:01:13.367Z,4.30
2018-12-19T11:03:56.815Z,4.40
2018-12-19T11:06:38.787Z,4.40
2018-12-19T11:09:21.221Z,4.60
2018-12-19T11:12:03.142Z,4.50
2018-12-19T11:14:45.008Z,4.50
2018-12-19T11:17:26.966Z,4.30
2018-12-19T11:20:10.982Z,4.40
2018-12-19T11:22:53.612Z,4.40
2018-12-19T11:25:35.387Z,4.40
2018-12-19T11:31:07.204Z,3.10
2018-12-19T11:33:49.496Z,4.20
2018-12-19T11:36:31.871Z,4.10
2018-12-19T11:39:14.165Z,4.10
2018-12-19T11:41:56.553Z,4.00
2018-12-19T11:44:38.838Z,4.10
2018-12-19T11:47:20.772Z,4.10
2018-12-19T11:50:04.728Z,4.10
2018-12-19T11:52:46.586Z,4.10
2018-12-19T11:55:28.163Z,4.10
2018-12-19T11:58:10.624Z,4.10
2018-12-19T12:00:54.089Z,4.10
2018-12-19T12:03:36.590Z,4.00
2018-12-19T12:06:19.846Z,4.10
2018-12-19T12:09:01.324Z,4.10
2018-12-19T12:11:45.755Z,4.20
2018-12-19T12:14:27.824Z,4.20
2018-12-19T12:17:09.905Z,4.10
2018-12-19T12:19:52.229Z,4.10
2018-12-19T12:22:34.128Z,4.20
2018-12-19T12:25:15.987Z,4.10
2018-12-19T12:27:58.263Z,4.10
2018-12-19T12:30:41.017Z,4.00
2018-12-19T12:33:24.111Z,4.10
2018-12-19T12:36:07.289Z,4.00
2018-12-19T12:41:34.521Z,3.90
2018-12-19T12:44:16.682Z,4.00
2018-12-19T12:46:58.622Z,3.90
2018-12-19T12:49:40.643Z,3.90
2018-12-19T12:52:22.731Z,4.00
2018-12-19T12:55:06.047Z,3.90
2018-12-19T12:57:47.943Z,3.90
2018-12-19T13:00:30.371Z,4.00
2018-12-19T13:03:12.588Z,4.00
2018-12-19T13:05:54.421Z,3.90
2018-12-19T13:08:36.593Z,3.90
2018-12-19T13:11:19.346Z,3.90
2018-12-19T13:14:01.366Z,4.00
2018-12-19T13:16:43.978Z,3.90
2018-12-19T13:19:27.920Z,3.90
2018-12-19T13:22:10.160Z,3.90
2018-12-19T13:24:52.610Z,3.90
2018-12-19T13:27:34.829Z,3.90
2018-12-19T13:30:17.963Z,4.00
2018-12-19T13:33:00.057Z,4.00
2018-12-19T13:35:42.382Z,3.90
2018-12-19T13:38:24.189Z,3.90
2018-12-19T13:41:07.163Z,3.90
2018-12-19T13:43:49.474Z,3.90
2018-12-19T13:46:31.675Z,3.90
2018-12-19T13:49:13.949Z,3.90
2018-12-19T13:51:56.284Z,3.80
2018-12-19T13:54:38.309Z,3.80
2018-12-19T13:57:20.586Z,3.70
2018-12-19T14:00:03.646Z,3.80
2018-12-19T14:02:47.520Z,3.80
2018-12-19T14:05:29.751Z,3.80
2018-12-19T14:08:11.856Z,3.80
2018-12-19T14:10:53.851Z,3.70
2018-12-19T14:13:36.160Z,3.70
2018-12-19T14:16:18.276Z,3.70
2018-12-19T14:19:00.571Z,3.60
2018-12-19T14:21:42.723Z,3.60
2018-12-19T14:24:24.480Z,3.70
2018-12-19T14:27:06.679Z,3.70
2018-12-19T14:29:49.578Z,3.70
2018-12-19T14:32:32.135Z,3.70
2018-12-19T14:35:14.902Z,3.70
2018-12-19T14:37:57.573Z,3.70
2018-12-19T14:40:39.793Z,3.70
2018-12-19T14:43:21.338Z,3.70
2018-12-19T14:46:03.018Z,3.70
2018-12-19T14:48:45.429Z,3.70
2018-12-19T14:51:27.969Z,3.70
2018-12-19T14:54:10.669Z,3.70
2018-12-19T14:56:53.141Z,3.70
2018-12-19T14:59:34.937Z,3.60
2018-12-19T15:02:16.770Z,3.50
2018-12-19T15:04:59.067Z,3.40
2018-12-19T15:07:40.664Z,3.40
2018-12-19T15:10:23.145Z,3.30
2018-12-19T15:13:04.298Z,3.30
2018-12-19T15:15:50.207Z,3.20
2018-12-19T15:18:32.305Z,3.20
2018-12-19T15:21:14.981Z,3.20
2018-12-19T15:23:57.625Z,3.20
2018-12-19T15:26:39.591Z,3.20
2018-12-19T15:29:23.284Z,3.20
2018-12-19T15:32:04.831Z,3.10
2018-12-19T15:34:48.164Z,3.10
2018-12-19T15:37:30.056Z,3.20
2018-12-19T15:40:12.318Z,3.10
2018-12-19T15:42:53.968Z,3.20
2018-12-19T15:45:35.564Z,3.10
2018-12-19T15:48:17.044Z,3.10
2018-12-19T15:50:58.361Z,3.10
2018-12-19T15:53:40.206Z,3.10
2018-12-19T15:56:21.886Z,3.10
2018-12-19T15:59:04.219Z,3.10
2018-12-19T16:01:46.164Z,3.00
2018-12-19T16:04:27.855Z,3.00
2018-12-19T16:07:09.270Z,3.10
2018-12-19T16:09:51.398Z,3.10
2018-12-19T16:12:39.240Z,3.10
2018-12-19T16:15:18.152Z,3.00
2018-12-19T16:17:59.491Z,3.10
2018-12-19T16:20:41.339Z,3.20
2018-12-19T16:23:23.155Z,3.20
2018-12-19T16:26:04.674Z,3.20
2018-12-19T16:28:45.995Z,3.30
2018-12-19T16:31:27.801Z,3.30
2018-12-19T16:34:09.665Z,3.40
2018-12-19T16:36:51.381Z,3.40
2018-12-19T16:39:32.991Z,3.30
2018-12-19T16:42:14.812Z,3.40
2018-12-19T16:44:59.788Z,3.40
2018-12-19T16:47:42.088Z,3.40
2018-12-19T16:50:23.755Z,3.50
2018-12-19T16:53:05.981Z,3.50
2018-12-19T16:55:48.184Z,3.50
2018-12-19T16:58:30.650Z,3.40
2018-12-19T17:01:12.157Z,3.50
2018-12-19T17:03:53.811Z,3.40
2018-12-19T17:06:36.175Z,3.40
2018-12-19T17:09:17.567Z,3.40
2018-12-19T17:11:58.898Z,3.40
2018-12-19T17:14:40.911Z,3.40
2018-12-19T17:17:22.606Z,3.40
2018-12-19T17:20:05.638Z,3.40
2018-12-19T17:22:47.413Z,3.30
2018-12-19T17:25:29.588Z,3.30
2018-12-19T17:28:11.266Z,3.40
2018-12-19T17:30:53.816Z,3.40
2018-12-19T17:33:35.844Z,3.30
2018-12-19T17:36:17.398Z,3.30
2018-12-19T17:38:58.611Z,3.30
2018-12-19T17:41:40.678Z,3.30
2018-12-19T17:44:23.039Z,3.30
2018-12-19T17:47:04.702Z,3.30
2018-12-19T17:49:46.467Z,3.30
2018-12-19T17:52:31.414Z,3.20
2018-12-19T17:55:13.166Z,3.20
2018-12-19T17:57:54.579Z,3.20
2018-12-19T18:00:36.993Z,3.10
2018-12-19T18:03:18.779Z,3.10
2018-12-19T18:06:01.135Z,3.10
2018-12-19T18:08:42.578Z,3.20
2018-12-19T18:11:25.472Z,3.20
2018-12-19T18:14:08.260Z,3.10
2018-12-19T18:16:50.017Z,3.10
2018-12-19T18:19:32.660Z,3.10
2018-12-19T18:22:15.842Z,3.00
2018-12-19T18:24:57.544Z,3.10
2018-12-19T18:27:39.536Z,3.10
2018-12-19T18:30:21.155Z,3.10
2018-12-19T18:33:03.105Z,3.10
2018-12-19T18:35:44.260Z,3.10
2018-12-19T18:38:25.547Z,3.10
2018-12-19T18:41:07.891Z,3.10
2018-12-19T18:43:49.718Z,3.10
2018-12-19T18:46:32.463Z,3.10
2018-12-19T18:49:13.836Z,3.10
2018-12-19T18:51:56.096Z,3.10
2018-12-19T18:54:37.853Z,3.10
2018-12-19T18:57:19.930Z,3.10
2018-12-19T19:00:01.609Z,3.10
2018-12-19T19:02:44.801Z,3.10
2018-12-19T19:05:27.382Z,3.10
2018-12-19T19:08:09.142Z,3.10
2018-12-19T19:10:50.733Z,3.10
2018-12-19T19:13:31.946Z,3.10
2018-12-19T19:16:13.238Z,3.20
2018-12-19T19:18:55.193Z,3.30
2018-12-19T19:21:37.229Z,3.30
2018-12-19T19:24:19.109Z,3.30
2018-12-19T19:27:00.608Z,3.30
2018-12-19T19:29:42.363Z,3.30
2018-12-19T19:32:24.275Z,3.20
2018-12-19T19:35:06.709Z,3.20
2018-12-19T19:37:48.635Z,3.20
2018-12-19T19:40:31.066Z,3.20
2018-12-19T19:43:13.652Z,3.20
2018-12-19T19:45:55.251Z,3.10
2018-12-19T19:48:37.190Z,3.10
2018-12-19T19:51:19.082Z,3.10
2018-12-19T19:54:01.101Z,3.20
2018-12-19T19:56:42.996Z,3.20
2018-12-19T19:59:25.262Z,3.10
2018-12-19T20:02:11.768Z,3.00
2018-12-19T20:04:53.493Z,3.10
2018-12-19T20:07:35.557Z,3.00
2018-12-19T20:10:17.244Z,3.00
2018-12-19T20:12:58.555Z,3.00
2018-12-19T20:15:39.946Z,3.10
2018-12-19T20:18:22.123Z,3.10
2018-12-19T20:21:05.036Z,3.10
2018-12-19T20:23:46.314Z,3.10
2018-12-19T20:26:27.523Z,3.10
2018-12-19T20:29:08.916Z,3.10
2018-12-19T20:31:50.323Z,3.10
2018-12-19T20:34:32.716Z,3.00
2018-12-19T20:37:14.140Z,3.00
2018-12-19T20:39:56.132Z,3.00
2018-12-19T20:42:37.706Z,3.00
2018-12-19T20:45:19.719Z,3.00
2018-12-19T20:48:01.921Z,3.10
2018-12-19T20:50:50.457Z,3.10
2018-12-19T20:53:32.125Z,3.10
2018-12-19T20:56:13.491Z,2.30
2018-12-19T20:58:55.885Z,3.00
2018-12-19T21:01:38.103Z,3.00
2018-12-19T21:04:19.819Z,3.00
2018-12-19T21:09:47.273Z,3.20
2018-12-19T21:12:28.882Z,3.20
2018-12-19T21:15:10.977Z,3.20
2018-12-19T21:17:58.031Z,3.20
2018-12-19T21:20:40.251Z,3.30
2018-12-19T21:23:22.471Z,3.30
2018-12-19T21:26:04.099Z,3.30
2018-12-19T21:28:46.347Z,3.10
2018-12-19T21:31:27.773Z,3.20
2018-12-19T21:34:10.298Z,3.10
2018-12-19T21:36:52.737Z,3.10
2018-12-19T21:39:34.048Z,3.10
2018-12-19T21:42:16.521Z,3.10
2018-12-19T21:44:58.458Z,3.20
2018-12-19T21:47:40.351Z,3.20
2018-12-19T21:50:22.848Z,3.10
2018-12-19T21:53:05.370Z,3.10
2018-12-19T21:55:48.289Z,3.20
2018-12-19T21:58:30.761Z,3.10
2018-12-19T22:01:12.616Z,3.00
2018-12-19T22:03:54.518Z,3.40
2018-12-19T22:06:37.196Z,3.00
2018-12-19T22:09:18.959Z,3.00
2018-12-19T22:12:01.363Z,2.90
2018-12-19T22:14:42.882Z,2.90
2018-12-19T22:17:29.761Z,2.90
2018-12-19T22:20:11.732Z,3.00
2018-12-19T22:22:54.058Z,2.90
2018-12-19T22:25:35.490Z,3.00
2018-12-19T22:28:17.000Z,3.00
2018-12-19T22:30:59.760Z,3.00
2018-12-19T22:33:41.167Z,3.10
2018-12-19T22:36:23.338Z,3.10
2018-12-19T22:39:13.813Z,3.00
2018-12-19T22:41:55.249Z,3.00
2018-12-19T22:44:36.716Z,3.00
2018-12-19T22:47:18.417Z,3.00
2018-12-19T22:50:00.010Z,3.10
2018-12-19T22:52:42.005Z,3.10
2018-12-19T22:55:23.797Z,3.10
2018-12-19T22:58:05.743Z,3.00
2018-12-19T23:00:55.619Z,3.00
2018-12-19T23:03:44.002Z,3.00
2018-12-19T23:06:26.803Z,2.90
2018-12-19T23:09:08.981Z,2.90
2018-12-19T23:11:50.878Z,2.80
2018-12-19T23:14:33.285Z,2.80
2018-12-19T23:17:25.103Z,2.70
2018-12-19T23:20:12.376Z,2.70
2018-12-19T23:22:59.566Z,2.70
2018-12-19T23:25:46.920Z,2.70
2018-12-19T23:28:30.141Z,2.70
2018-12-19T23:31:13.071Z,2.80
2018-12-19T23:33:55.174Z,2.80
2018-12-19T23:36:36.708Z,2.80
2018-12-19T23:39:18.938Z,2.80
2018-12-19T23:42:01.256Z,2.80
2018-12-19T23:44:43.129Z,2.80
2018-12-19T23:47:24.322Z,2.80
2018-12-19T23:50:06.853Z,2.80
2018-12-19T23:52:48.476Z,2.70
2018-12-19T23:55:29.999Z,2.80
2018-12-19T23:58:11.386Z,2.80
